createdAt,value
2022-10-17T00:00:42.648Z,7.70
2022-10-17T00:03:09.772Z,7.90
2022-10-17T00:05:41.976Z,8.12
2022-10-17T00:08:09.796Z,8.30
2022-10-17T00:10:37.134Z,8.46
2022-10-17T00:13:04.603Z,8.37
2022-10-17T00:15:31.455Z,8.13
2022-10-17T00:17:58.819Z,8.01
2022-10-17T00:20:26.163Z,7.81
2022-10-17T00:22:53.453Z,7.37
2022-10-17T00:25:20.330Z,7.62
2022-10-17T00:27:47.456Z,7.81
2022-10-17T00:30:16.824Z,7.52
2022-10-17T00:32:43.699Z,7.72
2022-10-17T00:35:10.912Z,7.36
2022-10-17T00:37:37.838Z,7.44
2022-10-17T00:40:06.615Z,7.56
2022-10-17T00:42:33.669Z,7.29
2022-10-17T00:45:05.741Z,7.38
2022-10-17T00:47:33.933Z,7.03
2022-10-17T00:52:33.353Z,7.04
2022-10-17T00:55:12.224Z,7.20
2022-10-17T00:57:39.836Z,7.19
2022-10-17T01:00:09.943Z,7.14
2022-10-17T01:02:37.201Z,6.87
2022-10-17T01:05:04.691Z,7.03
2022-10-17T01:07:37.128Z,7.02
2022-10-17T01:10:07.775Z,6.97
2022-10-17T01:13:07.277Z,7.21
2022-10-17T01:15:40.724Z,7.03
2022-10-17T01:18:33.779Z,7.26
2022-10-17T01:21:24.165Z,7.19
2022-10-17T01:24:30.094Z,7.34
2022-10-17T01:27:15.348Z,7.28
2022-10-17T01:30:22.068Z,7.39
2022-10-17T01:33:27.971Z,6.95
2022-10-17T01:36:01.742Z,6.79
2022-10-17T01:38:44.435Z,6.80
2022-10-17T01:41:41.170Z,6.65
2022-10-17T01:44:18.105Z,6.58
2022-10-17T01:46:50.365Z,6.58
2022-10-17T01:49:22.651Z,6.43
2022-10-17T01:51:55.391Z,6.50
2022-10-17T01:54:37.387Z,6.68
2022-10-17T01:57:08.538Z,6.75
2022-10-17T01:59:42.638Z,6.33
2022-10-17T02:02:11.310Z,6.12
2022-10-17T02:04:38.835Z,6.32
2022-10-17T02:07:10.976Z,6.27
2022-10-17T02:09:38.734Z,6.44
2022-10-17T02:12:39.757Z,6.36
2022-10-17T02:15:19.897Z,6.46
2022-10-17T02:18:07.350Z,6.38
2022-10-17T02:20:49.596Z,6.42
2022-10-17T02:23:16.424Z,6.38
2022-10-17T02:25:50.363Z,6.20
2022-10-17T02:28:23.239Z,6.33
2022-10-17T02:31:00.868Z,6.21
2022-10-17T02:33:53.341Z,5.84
2022-10-17T02:36:29.486Z,5.74
2022-10-17T02:38:58.086Z,5.70
2022-10-17T02:41:26.136Z,5.75
2022-10-17T02:43:55.656Z,6.23
2022-10-17T02:46:28.447Z,6.49
2022-10-17T02:49:01.056Z,6.75
2022-10-17T02:51:45.324Z,6.95
2022-10-17T02:54:31.969Z,7.15
2022-10-17T02:57:06.469Z,7.32
2022-10-17T02:59:36.350Z,7.14
2022-10-17T03:02:05.744Z,7.30
2022-10-17T03:04:34.253Z,7.26
2022-10-17T03:07:01.697Z,6.73
2022-10-17T03:09:28.996Z,6.54
2022-10-17T03:11:55.980Z,6.53
2022-10-17T03:14:23.102Z,6.71
2022-10-17T03:16:49.942Z,6.67
2022-10-17T03:19:18.386Z,6.78
2022-10-17T03:21:45.351Z,6.79
2022-10-17T03:24:12.689Z,6.72
2022-10-17T03:26:39.571Z,6.80
2022-10-17T03:29:07.782Z,6.33
2022-10-17T03:31:36.618Z,5.93
2022-10-17T03:34:05.770Z,5.69
2022-10-17T03:36:32.657Z,5.52
2022-10-17T03:39:01.104Z,5.96
2022-10-17T03:41:28.581Z,6.31
2022-10-17T03:43:55.417Z,6.44
2022-10-17T03:46:24.073Z,6.42
2022-10-17T03:48:51.309Z,6.81
2022-10-17T03:51:18.342Z,6.83
2022-10-17T03:53:50.953Z,6.99
2022-10-17T03:56:23.964Z,6.71
2022-10-17T03:58:57.371Z,6.68
2022-10-17T04:01:25.290Z,6.26
2022-10-17T04:03:55.661Z,6.05
2022-10-17T04:06:22.818Z,5.96
2022-10-17T04:08:50.398Z,6.31
2022-10-17T04:11:25.187Z,6.65
2022-10-17T04:13:56.365Z,6.51
2022-10-17T04:16:27.243Z,6.78
2022-10-17T04:19:00.516Z,6.84
2022-10-17T04:21:31.224Z,6.39
2022-10-17T04:24:03.163Z,6.58
2022-10-17T04:26:43.865Z,6.81
2022-10-17T04:29:12.004Z,7.01
2022-10-17T04:31:41.138Z,7.19
2022-10-17T04:38:15.862Z,7.27
2022-10-17T04:40:45.424Z,7.21
2022-10-17T04:43:12.370Z,7.38
2022-10-17T04:45:39.265Z,7.47
2022-10-17T04:48:06.421Z,7.30
2022-10-17T04:50:36.697Z,7.01
2022-10-17T04:53:28.367Z,7.25
2022-10-17T04:55:55.456Z,7.26
2022-10-17T04:58:22.656Z,7.17
2022-10-17T05:00:51.476Z,7.26
2022-10-17T05:03:25.381Z,7.14
2022-10-17T05:05:52.327Z,6.96
2022-10-17T05:08:19.243Z,7.08
2022-10-17T05:10:46.447Z,7.23
2022-10-17T05:13:13.938Z,7.07
2022-10-17T05:15:41.312Z,7.04
2022-10-17T05:18:09.678Z,7.37
2022-10-17T05:20:37.416Z,7.67
2022-10-17T05:23:06.759Z,7.83
2022-10-17T05:25:39.261Z,8.17
2022-10-17T05:28:06.425Z,8.30
2022-10-17T05:30:36.875Z,8.40
2022-10-17T05:33:07.472Z,8.36
2022-10-17T05:35:34.475Z,8.47
2022-10-17T05:38:02.488Z,8.58
2022-10-17T05:40:32.114Z,8.74
2022-10-17T05:42:59.278Z,9.01
2022-10-17T05:45:26.537Z,8.93
2022-10-17T05:47:53.557Z,8.63
2022-10-17T05:50:24.037Z,8.71
2022-10-17T05:53:03.251Z,8.92
2022-10-17T05:55:32.533Z,9.28
2022-10-17T05:58:03.262Z,9.61
2022-10-17T06:00:35.737Z,9.69
2022-10-17T06:03:03.439Z,10.04
2022-10-17T06:05:30.982Z,10.06
2022-10-17T06:08:01.119Z,9.73
2022-10-17T06:10:35.174Z,9.56
2022-10-17T06:13:02.285Z,9.87
2022-10-17T06:15:29.289Z,10.15
2022-10-17T06:18:01.724Z,10.28
2022-10-17T06:20:28.862Z,10.43
2022-10-17T06:22:55.727Z,10.56
2022-10-17T06:25:36.591Z,10.77
2022-10-17T06:28:04.986Z,11.13
2022-10-17T06:30:32.426Z,11.08
2022-10-17T06:33:00.030Z,11.32
2022-10-17T06:35:27.652Z,11.29
2022-10-17T06:37:54.580Z,11.46
2022-10-17T06:40:22.618Z,11.73
2022-10-17T06:42:49.991Z,11.77
2022-10-17T06:45:44.820Z,11.77
2022-10-17T06:48:26.534Z,11.90
2022-10-17T06:51:12.408Z,12.10
2022-10-17T06:53:47.911Z,12.40
2022-10-17T06:56:45.650Z,12.72
2022-10-17T06:59:35.614Z,12.98
2022-10-17T07:02:11.876Z,12.90
2022-10-17T07:04:40.002Z,13.14
2022-10-17T07:07:07.902Z,13.38
2022-10-17T07:09:35.290Z,13.44
2022-10-17T07:12:02.732Z,13.15
2022-10-17T07:14:32.251Z,12.79
2022-10-17T07:17:01.274Z,12.79
2022-10-17T07:19:31.661Z,12.96
2022-10-17T07:21:58.547Z,13.23
2022-10-17T07:24:26.044Z,13.45
2022-10-17T07:27:04.397Z,13.52
2022-10-17T07:29:31.355Z,13.76
2022-10-17T07:32:09.893Z,13.76
2022-10-17T07:34:38.739Z,13.66
2022-10-17T07:37:09.946Z,13.69
2022-10-17T07:39:40.093Z,13.98
2022-10-17T07:42:07.818Z,14.10
2022-10-17T07:44:35.840Z,14.03
2022-10-17T07:47:03.015Z,13.92
2022-10-17T07:49:30.203Z,13.55
2022-10-17T07:51:57.263Z,13.73
2022-10-17T07:54:27.122Z,14.01
2022-10-17T07:56:54.000Z,14.23
2022-10-17T07:59:21.049Z,14.08
2022-10-17T08:01:48.907Z,14.14
2022-10-17T08:04:18.579Z,14.16
2022-10-17T08:06:48.959Z,14.34
2022-10-17T08:09:15.942Z,14.28
2022-10-17T08:11:46.122Z,14.67
2022-10-17T08:14:14.177Z,14.64
2022-10-17T08:16:41.194Z,14.88
2022-10-17T08:19:11.575Z,15.05
2022-10-17T08:21:43.679Z,15.17
2022-10-17T08:24:10.910Z,15.34
2022-10-17T08:26:42.329Z,15.56
2022-10-17T08:29:15.229Z,15.55
2022-10-17T08:31:45.287Z,15.62
2022-10-17T08:34:16.214Z,15.59
2022-10-17T08:36:43.129Z,15.66
2022-10-17T08:39:10.267Z,15.61
2022-10-17T08:42:06.228Z,15.81
2022-10-17T08:44:57.738Z,16.01
2022-10-17T08:47:36.060Z,15.89
2022-10-17T08:50:06.920Z,15.92
2022-10-17T08:52:47.123Z,16.11
2022-10-17T08:57:55.684Z,15.90
2022-10-17T09:00:24.474Z,16.00
2022-10-17T09:03:19.686Z,15.68
2022-10-17T09:05:54.568Z,15.98
2022-10-17T09:08:48.031Z,16.24
2022-10-17T09:11:44.550Z,16.40
2022-10-17T09:14:30.255Z,16.56
2022-10-17T09:17:21.775Z,16.71
2022-10-17T09:19:59.505Z,16.82
2022-10-17T09:22:31.469Z,16.82
2022-10-17T09:25:06.832Z,16.56
2022-10-17T09:27:48.383Z,16.83
2022-10-17T09:30:44.171Z,16.85
2022-10-17T09:33:35.632Z,16.82
2022-10-17T09:36:31.766Z,16.95
2022-10-17T09:39:02.654Z,16.95
2022-10-17T09:41:50.497Z,17.08
2022-10-17T09:44:25.556Z,17.21
2022-10-17T09:47:29.879Z,17.45
2022-10-17T09:49:57.121Z,17.50
2022-10-17T09:52:50.865Z,17.62
2022-10-17T09:55:26.353Z,17.47
2022-10-17T09:57:57.374Z,17.76
2022-10-17T10:00:30.959Z,17.51
2022-10-17T10:03:33.149Z,17.58
2022-10-17T10:06:23.398Z,17.63
2022-10-17T10:09:05.051Z,17.56
2022-10-17T10:11:54.233Z,17.71
2022-10-17T10:14:36.087Z,17.87
2022-10-17T10:17:05.565Z,17.93
2022-10-17T10:19:37.891Z,17.98
2022-10-17T10:22:31.566Z,18.17
2022-10-17T10:25:11.461Z,18.00
2022-10-17T10:27:40.964Z,18.01
2022-10-17T10:30:26.205Z,18.04
2022-10-17T10:35:38.188Z,18.16
2022-10-17T10:38:16.609Z,17.98
2022-10-17T10:40:51.800Z,17.97
2022-10-17T10:43:44.296Z,18.15
2022-10-17T10:46:37.527Z,18.28
2022-10-17T10:49:31.574Z,18.34
2022-10-17T10:52:03.864Z,18.39
2022-10-17T10:54:43.056Z,18.41
2022-10-17T10:57:20.074Z,18.51
2022-10-17T11:00:15.540Z,18.60
2022-10-17T11:02:54.601Z,18.75
2022-10-17T11:05:26.565Z,18.73
2022-10-17T11:08:06.561Z,18.71
2022-10-17T11:10:38.287Z,18.66
2022-10-17T11:13:20.436Z,18.85
2022-10-17T11:16:09.463Z,18.79
2022-10-17T11:18:45.741Z,18.63
2022-10-17T11:21:17.197Z,18.85
2022-10-17T11:23:51.455Z,18.89
2022-10-17T11:26:27.154Z,19.09
2022-10-17T11:28:55.339Z,19.24
2022-10-17T11:31:33.943Z,19.23
2022-10-17T11:34:20.248Z,19.24
2022-10-17T11:36:55.415Z,19.26
2022-10-17T11:39:31.402Z,19.26
2022-10-17T11:42:06.809Z,19.27
2022-10-17T11:44:39.271Z,19.24
2022-10-17T11:47:26.219Z,19.10
2022-10-17T11:53:14.439Z,18.67
2022-10-17T11:55:43.454Z,18.90
2022-10-17T11:58:39.367Z,19.03
2022-10-17T12:01:06.975Z,19.19
2022-10-17T12:03:43.197Z,19.35
2022-10-17T12:06:43.454Z,19.31
2022-10-17T12:09:32.727Z,19.49
2022-10-17T12:12:02.415Z,19.20
2022-10-17T12:14:48.532Z,18.80
2022-10-17T12:17:38.992Z,18.86
2022-10-17T12:20:25.683Z,19.14
2022-10-17T12:23:15.801Z,19.21
2022-10-17T12:25:54.233Z,19.26
2022-10-17T12:28:30.587Z,19.27
2022-10-17T12:31:16.112Z,19.43
2022-10-17T12:33:46.145Z,19.44
2022-10-17T12:36:21.193Z,19.44
2022-10-17T12:38:50.451Z,19.33
2022-10-17T12:41:40.363Z,19.43
2022-10-17T12:44:14.275Z,19.43
2022-10-17T12:46:58.014Z,19.47
2022-10-17T12:49:53.118Z,19.55
2022-10-17T12:52:31.708Z,19.56
2022-10-17T12:55:12.604Z,19.61
2022-10-17T12:57:44.712Z,19.61
2022-10-17T13:00:20.099Z,19.64
2022-10-17T13:02:52.305Z,19.47
2022-10-17T13:05:32.826Z,19.53
2022-10-17T13:08:08.849Z,19.53
2022-10-17T13:10:41.814Z,19.45
2022-10-17T13:13:21.471Z,19.55
2022-10-17T13:15:54.097Z,19.57
2022-10-17T13:18:36.741Z,19.55
2022-10-17T13:21:16.904Z,19.54
2022-10-17T13:23:43.911Z,19.35
2022-10-17T13:26:20.400Z,19.33
2022-10-17T13:29:11.464Z,18.61
2022-10-17T13:31:42.694Z,19.42
2022-10-17T13:34:18.569Z,19.44
2022-10-17T13:36:52.239Z,19.45
2022-10-17T13:39:32.613Z,19.45
2022-10-17T13:42:25.064Z,19.30
2022-10-17T13:44:52.692Z,19.36
2022-10-17T13:47:29.021Z,19.29
2022-10-17T13:49:57.916Z,19.26
2022-10-17T13:52:30.116Z,19.44
2022-10-17T13:55:17.573Z,19.42
2022-10-17T13:57:44.650Z,19.51
2022-10-17T14:00:23.134Z,19.33
2022-10-17T14:02:50.197Z,19.34
2022-10-17T14:05:21.251Z,19.35
2022-10-17T14:08:12.760Z,19.39
2022-10-17T14:10:42.483Z,19.48
2022-10-17T14:13:30.309Z,19.29
2022-10-17T14:16:01.734Z,19.31
2022-10-17T14:18:36.166Z,19.33
2022-10-17T14:21:34.286Z,19.18
2022-10-17T14:24:11.945Z,19.14
2022-10-17T14:26:51.597Z,19.16
2022-10-17T14:29:24.305Z,19.23
2022-10-17T14:31:58.742Z,19.26
2022-10-17T14:44:30.946Z,19.10
2022-10-17T14:47:30.878Z,18.99
2022-10-17T14:50:22.716Z,18.98
2022-10-17T14:53:21.854Z,18.90
2022-10-17T14:55:59.863Z,18.82
2022-10-17T14:58:30.786Z,18.76
2022-10-17T15:00:59.359Z,18.78
2022-10-17T15:03:26.585Z,18.69
2022-10-17T15:05:54.797Z,18.55
2022-10-17T15:08:24.567Z,18.50
2022-10-17T15:10:51.876Z,18.48
2022-10-17T15:13:28.232Z,18.41
2022-10-17T15:15:57.182Z,18.32
2022-10-17T15:18:24.039Z,18.24
2022-10-17T15:20:59.498Z,18.25
2022-10-17T15:23:32.164Z,18.23
2022-10-17T15:25:59.390Z,18.06
2022-10-17T15:28:27.391Z,18.11
2022-10-17T15:30:54.435Z,17.96
2022-10-17T15:33:21.231Z,17.89
2022-10-17T15:35:48.206Z,17.63
2022-10-17T15:38:18.293Z,17.45
2022-10-17T15:40:48.897Z,17.14
2022-10-17T15:43:19.648Z,17.14
2022-10-17T15:45:51.351Z,17.04
2022-10-17T15:48:29.768Z,16.99
2022-10-17T15:50:58.577Z,16.80
2022-10-17T15:53:25.499Z,16.77
2022-10-17T15:55:52.391Z,16.73
2022-10-17T15:58:19.928Z,16.69
2022-10-17T16:00:47.578Z,16.74
2022-10-17T16:03:14.612Z,16.75
2022-10-17T16:05:41.541Z,16.82
2022-10-17T16:08:08.386Z,16.68
2022-10-17T16:10:39.627Z,16.77
2022-10-17T16:13:06.449Z,16.80
2022-10-17T16:15:34.041Z,16.77
2022-10-17T16:18:04.326Z,16.64
2022-10-17T16:20:34.081Z,16.62
2022-10-17T16:23:03.150Z,16.56
2022-10-17T16:25:31.624Z,16.36
2022-10-17T16:28:00.945Z,16.35
2022-10-17T16:30:30.518Z,16.31
2022-10-17T16:32:57.407Z,16.18
2022-10-17T16:35:28.339Z,16.17
2022-10-17T16:37:57.916Z,16.09
2022-10-17T16:40:24.894Z,15.97
2022-10-17T16:42:52.035Z,15.86
2022-10-17T16:45:23.328Z,15.78
2022-10-17T16:47:50.802Z,15.70
2022-10-17T16:50:18.534Z,15.69
2022-10-17T16:52:46.240Z,15.58
2022-10-17T16:55:13.676Z,15.49
2022-10-17T17:00:14.122Z,15.36
2022-10-17T17:02:41.116Z,15.37
2022-10-17T17:05:08.657Z,15.28
2022-10-17T17:07:36.354Z,15.25
2022-10-17T17:10:05.245Z,15.20
2022-10-17T17:12:34.808Z,15.04
2022-10-17T17:15:03.273Z,15.12
2022-10-17T17:17:48.424Z,14.62
2022-10-17T17:20:17.461Z,14.69
2022-10-17T17:22:44.307Z,14.54
2022-10-17T17:25:11.122Z,14.56
2022-10-17T17:27:38.526Z,14.65
2022-10-17T17:30:07.956Z,14.74
2022-10-17T17:32:34.887Z,14.82
2022-10-17T17:35:02.226Z,14.84
2022-10-17T17:37:30.645Z,14.51
2022-10-17T17:39:57.710Z,14.61
2022-10-17T17:42:24.675Z,14.65
2022-10-17T17:44:52.516Z,14.63
2022-10-17T17:47:19.726Z,14.60
2022-10-17T17:49:46.804Z,14.42
2022-10-17T17:52:13.665Z,14.22
2022-10-17T17:54:41.064Z,14.26
2022-10-17T17:57:08.136Z,14.28
2022-10-17T17:59:35.400Z,14.22
2022-10-17T18:02:02.973Z,14.35
2022-10-17T18:04:29.961Z,14.11
2022-10-17T18:06:56.906Z,13.93
2022-10-17T18:09:24.585Z,13.83
2022-10-17T18:11:51.643Z,13.79
2022-10-17T18:14:23.790Z,13.65
2022-10-17T18:16:50.736Z,13.57
2022-10-17T18:19:20.242Z,13.50
2022-10-17T18:21:47.649Z,13.28
2022-10-17T18:24:14.729Z,13.39
2022-10-17T18:26:41.956Z,13.26
2022-10-17T18:29:09.161Z,13.36
2022-10-17T18:31:36.338Z,13.41
2022-10-17T18:34:05.168Z,13.40
2022-10-17T18:36:34.349Z,13.39
2022-10-17T18:39:02.115Z,13.23
2022-10-17T18:41:29.289Z,13.19
2022-10-17T18:43:57.241Z,13.07
2022-10-17T18:46:35.719Z,13.06
2022-10-17T18:49:03.557Z,12.93
2022-10-17T18:51:30.632Z,12.91
2022-10-17T18:53:58.781Z,12.96
2022-10-17T18:56:26.622Z,12.88
2022-10-17T18:58:55.189Z,12.98
2022-10-17T19:01:25.910Z,12.93
2022-10-17T19:03:55.536Z,12.81
2022-10-17T19:06:26.778Z,12.75
2022-10-17T19:08:54.690Z,12.56
2022-10-17T19:11:26.213Z,12.39
2022-10-17T19:13:54.063Z,12.37
2022-10-17T19:16:27.258Z,12.42
2022-10-17T19:18:57.993Z,12.25
2022-10-17T19:21:25.669Z,12.29
2022-10-17T19:24:00.706Z,12.30
2022-10-17T19:26:31.481Z,12.39
2022-10-17T19:29:00.401Z,12.38
2022-10-17T19:31:31.608Z,11.96
2022-10-17T19:34:00.143Z,11.63
2022-10-17T19:36:32.500Z,11.65
2022-10-17T19:39:04.193Z,11.65
2022-10-17T19:41:31.542Z,11.52
2022-10-17T19:43:59.712Z,11.72
2022-10-17T19:46:28.082Z,11.65
2022-10-17T19:48:55.629Z,11.83
2022-10-17T19:51:24.620Z,11.99
2022-10-17T19:53:54.787Z,11.96
2022-10-17T19:56:23.150Z,11.89
2022-10-17T19:58:51.436Z,11.96
2022-10-17T20:01:23.065Z,12.00
2022-10-17T20:03:50.636Z,12.00
2022-10-17T20:06:19.470Z,12.06
2022-10-17T20:08:47.232Z,12.06
2022-10-17T20:11:16.874Z,12.04
2022-10-17T20:13:44.859Z,11.82
2022-10-17T20:16:14.822Z,11.85
2022-10-17T20:18:41.996Z,11.86
2022-10-17T20:21:12.428Z,11.60
2022-10-17T20:23:40.640Z,11.30
2022-10-17T20:26:26.082Z,11.47
2022-10-17T20:29:02.065Z,11.37
2022-10-17T20:31:30.157Z,11.26
2022-10-17T20:33:58.878Z,11.36
2022-10-17T20:36:25.951Z,11.27
2022-10-17T20:38:55.517Z,10.87
2022-10-17T20:41:23.575Z,10.85
2022-10-17T20:43:55.330Z,10.97
2022-10-17T20:46:36.269Z,10.97
2022-10-17T20:49:07.054Z,11.22
2022-10-17T20:51:35.386Z,11.15
2022-10-17T20:54:03.096Z,11.04
2022-10-17T20:56:32.528Z,10.80
2022-10-17T20:59:02.966Z,10.83
2022-10-17T21:01:31.681Z,10.63
2022-10-17T21:04:06.211Z,10.27
2022-10-17T21:06:43.129Z,10.09
2022-10-17T21:09:10.027Z,10.06
2022-10-17T21:11:36.912Z,9.98
2022-10-17T21:14:05.711Z,9.96
2022-10-17T21:16:34.717Z,10.18
2022-10-17T21:19:02.208Z,10.23
2022-10-17T21:21:34.260Z,10.18
2022-10-17T21:24:07.205Z,10.25
2022-10-17T21:26:37.706Z,10.31
2022-10-17T21:29:06.473Z,10.25
2022-10-17T21:31:35.390Z,10.41
2022-10-17T21:34:10.462Z,10.34
2022-10-17T21:36:37.657Z,9.93
2022-10-17T21:41:39.286Z,9.89
2022-10-17T21:44:11.963Z,9.76
2022-10-17T21:46:38.966Z,9.94
2022-10-17T21:49:05.920Z,9.61
2022-10-17T21:51:33.129Z,9.61
2022-10-17T21:54:00.142Z,9.57
2022-10-17T21:56:28.710Z,9.63
2022-10-17T21:58:56.324Z,9.76
2022-10-17T22:01:31.710Z,9.80
2022-10-17T22:04:07.880Z,9.64
2022-10-17T22:06:40.288Z,9.49
2022-10-17T22:09:17.437Z,9.57
2022-10-17T22:11:47.275Z,9.74
2022-10-17T22:14:17.776Z,9.79
2022-10-17T22:16:46.893Z,9.92
2022-10-17T22:19:17.786Z,10.04
2022-10-17T22:21:45.065Z,10.00
2022-10-17T22:24:14.470Z,10.01
2022-10-17T22:26:42.642Z,10.04
2022-10-17T22:29:11.648Z,10.12
2022-10-17T22:31:39.499Z,10.19
2022-10-17T22:34:07.217Z,10.15
2022-10-17T22:36:34.669Z,10.18
2022-10-17T22:39:01.856Z,10.04
2022-10-17T22:41:29.036Z,10.02
2022-10-17T22:43:55.955Z,9.83
2022-10-17T22:46:22.835Z,9.99
2022-10-17T22:48:49.784Z,9.90
2022-10-17T22:51:16.923Z,9.58
2022-10-17T22:53:43.852Z,9.47
2022-10-17T22:56:19.197Z,9.42
2022-10-17T22:58:46.437Z,9.22
2022-10-17T23:01:16.815Z,9.28
2022-10-17T23:03:44.203Z,9.03
2022-10-17T23:06:11.598Z,8.88
2022-10-17T23:08:39.420Z,8.68
2022-10-17T23:11:07.396Z,8.14
2022-10-17T23:13:34.352Z,7.87
2022-10-17T23:16:01.293Z,7.49
2022-10-17T23:18:28.310Z,7.27
2022-10-17T23:20:56.258Z,7.37
2022-10-17T23:23:23.172Z,7.39
2022-10-17T23:25:50.523Z,7.40
2022-10-17T23:28:17.435Z,7.65
2022-10-17T23:30:44.321Z,7.73
2022-10-17T23:33:13.313Z,7.61
2022-10-17T23:35:40.680Z,7.56
2022-10-17T23:38:07.876Z,7.45
2022-10-17T23:40:35.454Z,7.32
2022-10-17T23:43:04.307Z,7.43
2022-10-17T23:45:36.034Z,7.48
2022-10-17T23:48:03.258Z,7.49
2022-10-17T23:50:30.244Z,7.49
2022-10-17T23:52:57.051Z,7.59
2022-10-17T23:55:24.073Z,7.37
2022-10-17T23:57:50.903Z,7.53
